Back to Top

Language: 

My Weather Underground Personal Weather Station Historical Data with Graphs...

Delerius Weather Station Historical Data
Daily Summary for April 24, 2017 Units:  English    Metric   Both
« Previous Day
Next Day »
Daily Weekly Monthly Yearly Custom
  High: Low: Average:
Temperature: 57.4 °F 35.8 °F 48.9 °F
Dew Point: 45.5 °F 23.9 °F 38.2 °F
Humidity: 86 % 39 % 68 %
Wind Speed: 20.0 mph 0.0 mph 10 mph
Wind Gust: 34.0 mph - -
Wind:- - WNW
Pressure: 30.10 in 29.86 in -
Precipitation: 0.00 in    
Historical Graphs
 
 
Tabular Data for April 24, 2017
Time Temperature Dew Point Pressure Wind Wind Speed Wind Gust Humidity Rainfall Rate (Hourly) solar Conditions
00:04 47.3 °F 43.0 °F 30.09 in West 6.0 mph 13.0 mph 85 % 0.00 in 0 W/m2
00:09 47.7 °F 43.4 °F 30.10 in West 7.0 mph 13.0 mph 85 % 0.00 in 0 W/m2
00:15 48.0 °F 43.4 °F 30.09 in West 8.0 mph 13.0 mph 84 % 0.00 in 0 W/m2
00:20 48.4 °F 43.8 °F 30.09 in West 8.0 mph 15.0 mph 84 % 0.00 in 0 W/m2
00:25 48.4 °F 43.8 °F 30.09 in West 8.0 mph 15.0 mph 84 % 0.00 in 0 W/m2
00:30 48.6 °F 43.9 °F 30.09 in West 8.0 mph 13.0 mph 84 % 0.00 in 0 W/m2
00:35 48.7 °F 44.1 °F 30.09 in West 7.0 mph 12.0 mph 84 % 0.00 in 0 W/m2
00:40 48.7 °F 44.1 °F 30.09 in West 7.0 mph 11.0 mph 84 % 0.00 in 0 W/m2
00:45 48.7 °F 44.4 °F 30.08 in West 8.0 mph 14.0 mph 85 % 0.00 in 0 W/m2
00:50 48.7 °F 44.4 °F 30.08 in WSW 8.0 mph 14.0 mph 85 % 0.00 in 0 W/m2
00:55 48.7 °F 44.4 °F 30.08 in WSW 9.0 mph 18.0 mph 85 % 0.00 in 0 W/m2
01:01 48.7 °F 44.4 °F 30.08 in WSW 10.0 mph 18.0 mph 85 % 0.00 in 0 W/m2
01:06 48.7 °F 44.4 °F 30.08 in WSW 9.0 mph 16.0 mph 85 % 0.00 in 0 W/m2
01:11 48.7 °F 44.7 °F 30.07 in West 9.0 mph 15.0 mph 86 % 0.00 in 0 W/m2
01:16 48.7 °F 44.7 °F 30.07 in WSW 10.0 mph 15.0 mph 86 % 0.00 in 0 W/m2
01:21 48.7 °F 44.7 °F 30.07 in WSW 10.0 mph 15.0 mph 86 % 0.00 in 0 W/m2
01:26 48.7 °F 44.7 °F 30.07 in WSW 8.0 mph 14.0 mph 86 % 0.00 in 0 W/m2
01:31 48.9 °F 44.9 °F 30.07 in WSW 6.0 mph 11.0 mph 86 % 0.00 in 0 W/m2
01:36 48.9 °F 44.9 °F 30.07 in WSW 6.0 mph 11.0 mph 86 % 0.00 in 0 W/m2
01:41 48.9 °F 44.9 °F 30.06 in WSW 6.0 mph 10.0 mph 86 % 0.00 in 0 W/m2
01:46 48.9 °F 44.9 °F 30.06 in WSW 5.0 mph 9.0 mph 86 % 0.00 in 0 W/m2
01:51 48.9 °F 44.9 °F 30.06 in WSW 4.0 mph 8.0 mph 86 % 0.00 in 0 W/m2
01:56 49.1 °F 45.1 °F 30.06 in WSW 4.0 mph 9.0 mph 86 % 0.00 in 0 W/m2
02:01 49.1 °F 45.1 °F 30.06 in WSW 4.0 mph 10.0 mph 86 % 0.00 in 0 W/m2
02:06 49.3 °F 45.3 °F 30.05 in WSW 6.0 mph 11.0 mph 86 % 0.00 in 0 W/m2
02:11 49.5 °F 45.4 °F 30.05 in WSW 6.0 mph 11.0 mph 86 % 0.00 in 0 W/m2
02:16 49.5 °F 45.4 °F 30.05 in West 5.0 mph 9.0 mph 86 % 0.00 in 0 W/m2
02:21 49.6 °F 45.3 °F 30.05 in West 6.0 mph 12.0 mph 85 % 0.00 in 0 W/m2
02:26 49.8 °F 45.5 °F 30.04 in West 7.0 mph 12.0 mph 85 % 0.00 in 0 W/m2
02:31 49.8 °F 45.5 °F 30.04 in West 7.0 mph 14.0 mph 85 % 0.00 in 0 W/m2
02:36 50.0 °F 45.4 °F 30.04 in West 8.0 mph 14.0 mph 84 % 0.00 in 0 W/m2
02:41 50.0 °F 45.4 °F 30.04 in West 7.0 mph 12.0 mph 84 % 0.00 in 0 W/m2
02:46 50.0 °F 45.0 °F 30.03 in West 7.0 mph 11.0 mph 83 % 0.00 in 0 W/m2
02:51 49.8 °F 44.9 °F 30.03 in West 7.0 mph 11.0 mph 83 % 0.00 in 0 W/m2
02:56 49.8 °F 44.9 °F 30.03 in West 8.0 mph 14.0 mph 83 % 0.00 in 0 W/m2
03:01 49.8 °F 44.9 °F 30.03 in West 7.0 mph 14.0 mph 83 % 0.00 in 0 W/m2
03:06 49.8 °F 44.9 °F 30.03 in West 6.0 mph 11.0 mph 83 % 0.00 in 0 W/m2
03:11 49.8 °F 44.9 °F 30.03 in WSW 4.0 mph 11.0 mph 83 % 0.00 in 0 W/m2
03:16 49.8 °F 44.5 °F 30.02 in WSW 4.0 mph 11.0 mph 82 % 0.00 in 0 W/m2
03:21 49.8 °F 44.5 °F 30.02 in West 3.0 mph 8.0 mph 82 % 0.00 in 0 W/m2
03:26 49.8 °F 44.5 °F 30.02 in West 3.0 mph 8.0 mph 82 % 0.00 in 0 W/m2
03:31 49.6 °F 44.0 °F 30.02 in West 4.0 mph 10.0 mph 81 % 0.00 in 0 W/m2
03:37 49.6 °F 44.0 °F 30.02 in West 5.0 mph 11.0 mph 81 % 0.00 in 0 W/m2
03:42 49.8 °F 44.2 °F 30.01 in WSW 6.0 mph 12.0 mph 81 % 0.00 in 0 W/m2
03:47 49.8 °F 44.2 °F 30.01 in WSW 6.0 mph 12.0 mph 81 % 0.00 in 0 W/m2
03:52 49.8 °F 44.2 °F 30.01 in West 5.0 mph 8.0 mph 81 % 0.00 in 0 W/m2
03:57 49.8 °F 44.2 °F 30.01 in West 4.0 mph 8.0 mph 81 % 0.00 in 0 W/m2
04:02 49.8 °F 44.2 °F 30.00 in West 4.0 mph 9.0 mph 81 % 0.00 in 0 W/m2
04:07 49.8 °F 44.2 °F 30.00 in West 5.0 mph 16.0 mph 81 % 0.00 in 0 W/m2
04:12 49.8 °F 44.2 °F 30.00 in West 6.0 mph 16.0 mph 81 % 0.00 in 0 W/m2
04:17 49.8 °F 44.2 °F 30.00 in West 5.0 mph 12.0 mph 81 % 0.00 in 0 W/m2
04:22 49.8 °F 44.2 °F 30.00 in West 4.0 mph 11.0 mph 81 % 0.00 in 0 W/m2
04:27 49.8 °F 44.2 °F 30.00 in West 5.0 mph 10.0 mph 81 % 0.00 in 0 W/m2
04:32 49.8 °F 44.5 °F 30.00 in West 6.0 mph 14.0 mph 82 % 0.00 in 0 W/m2
04:37 49.8 °F 44.5 °F 29.99 in West 7.0 mph 14.0 mph 82 % 0.00 in 0 W/m2
04:42 49.8 °F 44.5 °F 29.99 in West 7.0 mph 20.0 mph 82 % 0.00 in 0 W/m2
04:47 49.8 °F 44.5 °F 29.99 in West 8.0 mph 20.0 mph 82 % 0.00 in 0 W/m2
04:52 49.8 °F 44.5 °F 29.98 in West 7.0 mph 16.0 mph 82 % 0.00 in 0 W/m2
04:57 49.6 °F 44.4 °F 29.99 in West 6.0 mph 14.0 mph 82 % 0.00 in 0 W/m2
05:02 49.6 °F 44.4 °F 29.98 in West 5.0 mph 14.0 mph 82 % 0.00 in 0 W/m2
05:07 49.6 °F 44.4 °F 29.98 in West 5.0 mph 15.0 mph 82 % 0.00 in 0 W/m2
05:12 49.6 °F 44.4 °F 29.98 in WNW 6.0 mph 18.0 mph 82 % 0.00 in 0 W/m2
05:17 49.6 °F 44.4 °F 29.98 in WNW 7.0 mph 18.0 mph 82 % 0.00 in 0 W/m2
05:22 49.6 °F 44.4 °F 29.98 in WNW 9.0 mph 18.0 mph 82 % 0.00 in 0 W/m2
05:27 49.6 °F 44.0 °F 29.97 in WNW 9.0 mph 18.0 mph 81 % 0.00 in 0 W/m2
05:32 49.6 °F 44.0 °F 29.98 in WNW 10.0 mph 23.0 mph 81 % 0.00 in 0 W/m2
05:37 49.6 °F 44.0 °F 29.98 in WNW 11.0 mph 23.0 mph 81 % 0.00 in 0 W/m2
05:42 49.6 °F 44.0 °F 29.98 in WNW 11.0 mph 23.0 mph 81 % 0.00 in 0 W/m2
05:47 49.6 °F 44.4 °F 29.98 in WNW 8.0 mph 21.0 mph 82 % 0.00 in 0 W/m2
05:52 49.6 °F 44.4 °F 29.97 in WNW 8.0 mph 16.0 mph 82 % 0.00 in 0 W/m2
05:57 49.6 °F 44.4 °F 29.98 in WNW 9.0 mph 16.0 mph 82 % 0.00 in 5 W/m2
06:02 49.6 °F 44.4 °F 29.97 in WNW 9.0 mph 16.0 mph 82 % 0.00 in 7 W/m2
06:07 49.6 °F 44.4 °F 29.97 in WNW 9.0 mph 18.0 mph 82 % 0.00 in 9 W/m2
06:13 49.6 °F 44.0 °F 29.97 in WNW 10.0 mph 20.0 mph 81 % 0.00 in 12 W/m2
06:18 49.5 °F 43.9 °F 29.97 in WNW 12.0 mph 20.0 mph 81 % 0.00 in 14 W/m2
06:23 49.5 °F 43.9 °F 29.97 in WNW 12.0 mph 21.0 mph 81 % 0.00 in 19 W/m2
06:28 49.5 °F 44.2 °F 29.97 in WNW 10.0 mph 21.0 mph 82 % 0.00 in 23 W/m2
06:33 49.5 °F 44.2 °F 29.97 in WNW 8.0 mph 14.0 mph 82 % 0.00 in 23 W/m2
06:34 49.5 °F 44.2 °F 29.97 in WNW 8.0 mph 14.0 mph 82 % 0.00 in 21 W/m2
06:39 49.5 °F 44.2 °F 29.97 in WNW 10.0 mph 19.0 mph 82 % 0.00 in 21 W/m2
06:44 49.5 °F 44.2 °F 29.97 in WNW 12.0 mph 23.0 mph 82 % 0.00 in 23 W/m2
06:49 49.3 °F 44.0 °F 29.97 in WNW 13.0 mph 23.0 mph 82 % 0.00 in 35 W/m2
06:54 49.3 °F 44.3 °F 29.97 in WNW 11.0 mph 21.0 mph 83 % 0.00 in 39 W/m2
06:59 49.1 °F 44.2 °F 29.97 in WNW 10.0 mph 20.0 mph 83 % 0.00 in 39 W/m2
07:04 48.9 °F 44.0 °F 29.97 in WNW 10.0 mph 20.0 mph 83 % 0.00 in 44 W/m2
07:09 48.9 °F 44.0 °F 29.97 in WNW 9.0 mph 19.0 mph 83 % 0.00 in 37 W/m2
07:15 48.9 °F 44.0 °F 29.97 in WNW 10.0 mph 16.0 mph 83 % 0.00 in 42 W/m2
07:20 48.9 °F 44.0 °F 29.97 in WNW 10.0 mph 16.0 mph 83 % 0.00 in 46 W/m2
07:25 48.9 °F 44.0 °F 29.97 in WNW 10.0 mph 18.0 mph 83 % 0.00 in 46 W/m2
07:30 48.9 °F 43.7 °F 29.97 in WNW 10.0 mph 18.0 mph 82 % 0.00 in 49 W/m2
07:35 48.9 °F 43.7 °F 29.97 in WNW 9.0 mph 16.0 mph 82 % 0.00 in 56 W/m2
07:40 48.9 °F 43.7 °F 29.97 in WNW 9.0 mph 16.0 mph 82 % 0.00 in 65 W/m2
07:45 48.9 °F 43.7 °F 29.97 in WNW 9.0 mph 16.0 mph 82 % 0.00 in 62 W/m2
07:50 49.1 °F 43.8 °F 29.97 in WNW 9.0 mph 14.0 mph 82 % 0.00 in 88 W/m2
07:55 49.1 °F 43.8 °F 29.97 in WNW 9.0 mph 20.0 mph 82 % 0.00 in 114 W/m2
08:00 49.3 °F 44.0 °F 29.97 in WNW 10.0 mph 20.0 mph 82 % 0.00 in 132 W/m2
08:05 49.5 °F 43.9 °F 29.97 in WNW 10.0 mph 18.0 mph 81 % 0.00 in 113 W/m2
08:10 49.6 °F 44.0 °F 29.97 in WNW 11.0 mph 20.0 mph 81 % 0.00 in 114 W/m2
08:15 49.8 °F 43.9 °F 29.97 in WNW 12.0 mph 20.0 mph 80 % 0.00 in 102 W/m2
08:20 49.8 °F 43.9 °F 29.97 in WNW 12.0 mph 20.0 mph 80 % 0.00 in 91 W/m2
08:25 49.8 °F 43.9 °F 29.97 in WNW 11.0 mph 20.0 mph 80 % 0.00 in 67 W/m2
08:30 49.8 °F 44.5 °F 29.97 in WNW 10.0 mph 16.0 mph 82 % 0.00 in 72 W/m2
08:35 49.5 °F 44.5 °F 29.96 in WNW 9.0 mph 16.0 mph 83 % 0.00 in 156 W/m2
08:40 49.3 °F 44.6 °F 29.96 in WNW 10.0 mph 16.0 mph 84 % 0.00 in 264 W/m2
08:45 49.5 °F 45.1 °F 29.95 in WNW 11.0 mph 16.0 mph 85 % 0.00 in 265 W/m2
08:50 49.6 °F 45.3 °F 29.95 in WNW 10.0 mph 16.0 mph 85 % 0.00 in 250 W/m2
08:55 49.8 °F 45.5 °F 29.95 in WNW 10.0 mph 16.0 mph 85 % 0.00 in 197 W/m2
09:00 49.8 °F 45.2 °F 29.95 in WNW 9.0 mph 16.0 mph 84 % 0.00 in 193 W/m2
09:05 50.0 °F 45.0 °F 29.95 in WNW 10.0 mph 18.0 mph 83 % 0.00 in 204 W/m2
09:10 50.2 °F 44.9 °F 29.95 in WNW 11.0 mph 18.0 mph 82 % 0.00 in 239 W/m2
09:15 50.5 °F 44.9 °F 29.95 in WNW 10.0 mph 20.0 mph 81 % 0.00 in 232 W/m2
09:20 50.9 °F 44.9 °F 29.95 in WNW 11.0 mph 20.0 mph 80 % 0.00 in 253 W/m2
09:25 51.4 °F 45.5 °F 29.95 in WNW 10.0 mph 16.0 mph 80 % 0.00 in 367 W/m2
09:30 51.8 °F 44.8 °F 29.94 in WNW 11.0 mph 23.0 mph 77 % 0.00 in 260 W/m2
09:35 52.2 °F 44.5 °F 29.94 in WNW 12.0 mph 23.0 mph 75 % 0.00 in 338 W/m2
09:40 52.3 °F 44.3 °F 29.94 in WNW 13.0 mph 22.0 mph 74 % 0.00 in 459 W/m2
09:45 52.5 °F 44.8 °F 29.94 in WNW 14.0 mph 23.0 mph 75 % 0.00 in 322 W/m2
09:50 52.5 °F 44.8 °F 29.94 in WNW 13.0 mph 23.0 mph 75 % 0.00 in 348 W/m2
09:56 52.5 °F 44.8 °F 29.94 in West 12.0 mph 21.0 mph 75 % 0.00 in 264 W/m2
10:01 52.3 °F 44.3 °F 29.94 in West 14.0 mph 24.0 mph 74 % 0.00 in 415 W/m2
10:06 52.5 °F 44.5 °F 29.93 in WNW 14.0 mph 24.0 mph 74 % 0.00 in 508 W/m2
10:11 53.1 °F 44.6 °F 29.93 in WNW 12.0 mph 25.0 mph 73 % 0.00 in 480 W/m2
10:16 53.4 °F 44.2 °F 29.93 in WNW 14.0 mph 25.0 mph 71 % 0.00 in 596 W/m2
10:21 54.0 °F 44.4 °F 29.93 in WNW 15.0 mph 25.0 mph 70 % 0.00 in 455 W/m2
10:26 54.1 °F 44.2 °F 29.93 in WNW 14.0 mph 22.0 mph 69 % 0.00 in 504 W/m2
10:31 54.1 °F 44.2 °F 29.93 in WNW 13.0 mph 22.0 mph 69 % 0.00 in 645 W/m2
10:36 54.3 °F 44.0 °F 29.93 in WNW 13.0 mph 22.0 mph 68 % 0.00 in 471 W/m2
10:41 54.5 °F 44.2 °F 29.93 in WNW 13.0 mph 24.0 mph 68 % 0.00 in 397 W/m2
10:46 54.7 °F 44.3 °F 29.93 in WNW 14.0 mph 24.0 mph 68 % 0.00 in 438 W/m2
10:51 54.7 °F 45.1 °F 29.93 in WNW 14.0 mph 24.0 mph 70 % 0.00 in 269 W/m2
10:56 53.8 °F 44.2 °F 29.93 in WNW 14.0 mph 27.0 mph 70 % 0.00 in 376 W/m2
11:01 53.8 °F 45.0 °F 29.93 in WNW 13.0 mph 27.0 mph 72 % 0.00 in 496 W/m2
11:06 53.6 °F 44.8 °F 29.93 in WNW 12.0 mph 22.0 mph 72 % 0.00 in 369 W/m2
11:11 53.1 °F 44.6 °F 29.93 in West 13.0 mph 22.0 mph 73 % 0.00 in 283 W/m2
11:16 52.5 °F 44.8 °F 29.93 in WNW 12.0 mph 21.0 mph 75 % 0.00 in 234 W/m2
11:21 51.8 °F 44.8 °F 29.93 in WNW 12.0 mph 20.0 mph 77 % 0.00 in 334 W/m2
11:26 51.6 °F 44.6 °F 29.93 in West 10.0 mph 19.0 mph 77 % 0.00 in 292 W/m2
11:31 51.8 °F 44.8 °F 29.93 in WNW 9.0 mph 18.0 mph 77 % 0.00 in 376 W/m2
11:36 52.0 °F 44.6 °F 29.92 in West 10.0 mph 21.0 mph 76 % 0.00 in 394 W/m2
11:41 52.0 °F 43.9 °F 29.93 in West 12.0 mph 21.0 mph 74 % 0.00 in 341 W/m2
11:46 52.2 °F 44.1 °F 29.92 in WNW 11.0 mph 21.0 mph 74 % 0.00 in 464 W/m2
11:51 52.5 °F 44.5 °F 29.92 in WNW 10.0 mph 15.0 mph 74 % 0.00 in 376 W/m2
11:56 52.9 °F 44.8 °F 29.92 in West 10.0 mph 16.0 mph 74 % 0.00 in 417 W/m2
12:01 53.2 °F 45.5 °F 29.92 in WNW 8.0 mph 16.0 mph 75 % 0.00 in 369 W/m2
12:06 53.4 °F 44.6 °F 29.92 in West 9.0 mph 20.0 mph 72 % 0.00 in 336 W/m2
12:11 53.6 °F 44.4 °F 29.92 in WNW 10.0 mph 20.0 mph 71 % 0.00 in 294 W/m2
12:16 53.8 °F 43.8 °F 29.92 in WNW 9.0 mph 16.0 mph 69 % 0.00 in 329 W/m2
12:21 53.8 °F 43.5 °F 29.92 in NW 9.0 mph 18.0 mph 68 % 0.00 in 364 W/m2
12:26 53.1 °F 42.8 °F 29.92 in NNW 8.0 mph 15.0 mph 68 % 0.00 in 271 W/m2
12:31 52.5 °F 42.6 °F 29.92 in North 6.0 mph 12.0 mph 69 % 0.00 in 239 W/m2
12:36 52.2 °F 42.7 °F 29.92 in North 7.0 mph 12.0 mph 70 % 0.00 in 288 W/m2
12:47 52.9 °F 41.0 °F 29.91 in NW 9.0 mph 18.0 mph 64 % 0.00 in 253 W/m2
12:51 53.2 °F 40.5 °F 29.92 in NW 10.0 mph 18.0 mph 62 % 0.00 in 308 W/m2
12:57 53.8 °F 41.5 °F 29.91 in NW 9.0 mph 18.0 mph 63 % 0.00 in 308 W/m2
13:02 54.1 °F 41.4 °F 29.91 in NW 9.0 mph 18.0 mph 62 % 0.00 in 441 W/m2
13:07 54.5 °F 41.3 °F 29.91 in NW 7.0 mph 15.0 mph 61 % 0.00 in 241 W/m2
13:12 54.3 °F 40.3 °F 29.91 in NW 8.0 mph 15.0 mph 59 % 0.00 in 183 W/m2
13:17 54.0 °F 39.9 °F 29.90 in NW 9.0 mph 16.0 mph 59 % 0.00 in 209 W/m2
13:22 53.4 °F 39.9 °F 29.90 in NW 9.0 mph 16.0 mph 60 % 0.00 in 199 W/m2
13:27 53.2 °F 38.8 °F 29.90 in NW 9.0 mph 18.0 mph 58 % 0.00 in 179 W/m2
13:32 53.1 °F 38.2 °F 29.90 in NW 9.0 mph 18.0 mph 57 % 0.00 in 292 W/m2
13:37 53.2 °F 38.4 °F 29.90 in NW 9.0 mph 15.0 mph 57 % 0.00 in 260 W/m2
13:42 53.4 °F 38.6 °F 29.90 in NW 8.0 mph 15.0 mph 57 % 0.00 in 265 W/m2
13:47 53.6 °F 38.7 °F 29.90 in NW 6.0 mph 14.0 mph 57 % 0.00 in 214 W/m2
13:49 53.8 °F 38.9 °F 29.90 in NW 6.0 mph 14.0 mph 57 % 0.00 in 244 W/m2
13:54 53.8 °F 38.4 °F 29.90 in NW 7.0 mph 15.0 mph 56 % 0.00 in 276 W/m2
13:59 54.0 °F 38.6 °F 29.89 in NW 8.0 mph 15.0 mph 56 % 0.00 in 306 W/m2
14:04 54.1 °F 37.8 °F 29.89 in NW 9.0 mph 15.0 mph 54 % 0.00 in 301 W/m2
14:09 54.3 °F 37.5 °F 29.89 in NW 9.0 mph 18.0 mph 53 % 0.00 in 343 W/m2
14:14 55.0 °F 36.2 °F 29.89 in NW 10.0 mph 21.0 mph 49 % 0.00 in 1016 W/m2
14:19 56.1 °F 35.1 °F 29.89 in WNW 13.0 mph 25.0 mph 45 % 0.00 in 1011 W/m2
14:24 56.7 °F 33.2 °F 29.89 in NW 14.0 mph 25.0 mph 41 % 0.00 in 1032 W/m2
14:29 57.2 °F 34.9 °F 29.89 in NW 13.0 mph 23.0 mph 43 % 0.00 in 429 W/m2
14:34 57.2 °F 34.3 °F 29.89 in WNW 12.0 mph 23.0 mph 42 % 0.00 in 962 W/m2
14:39 57.4 °F 34.5 °F 29.89 in WNW 13.0 mph 24.0 mph 42 % 0.00 in 875 W/m2
14:44 57.4 °F 34.5 °F 29.89 in WNW 15.0 mph 26.0 mph 42 % 0.00 in 944 W/m2
14:49 56.8 °F 33.4 °F 29.89 in WNW 16.0 mph 26.0 mph 41 % 0.00 in 283 W/m2
14:54 55.8 °F 33.6 °F 29.89 in WNW 16.0 mph 27.0 mph 43 % 0.00 in 313 W/m2
14:59 55.0 °F 34.1 °F 29.88 in WNW 15.0 mph 27.0 mph 45 % 0.00 in 281 W/m2
15:04 55.0 °F 34.6 °F 29.88 in WNW 13.0 mph 23.0 mph 46 % 0.00 in 429 W/m2
15:10 54.9 °F 35.0 °F 29.88 in West 14.0 mph 26.0 mph 47 % 0.00 in 380 W/m2
15:15 54.7 °F 34.8 °F 29.89 in WNW 15.0 mph 26.0 mph 47 % 0.00 in 230 W/m2
15:20 54.3 °F 33.4 °F 29.88 in WNW 13.0 mph 25.0 mph 45 % 0.00 in 830 W/m2
15:25 54.3 °F 33.4 °F 29.88 in WNW 14.0 mph 27.0 mph 45 % 0.00 in 826 W/m2
15:30 54.5 °F 34.1 °F 29.88 in WNW 13.0 mph 27.0 mph 46 % 0.00 in 863 W/m2
15:35 54.1 °F 33.8 °F 29.88 in WNW 13.0 mph 25.0 mph 46 % 0.00 in 253 W/m2
15:40 54.3 °F 34.0 °F 29.88 in WNW 14.0 mph 27.0 mph 46 % 0.00 in 786 W/m2
15:45 54.5 °F 35.2 °F 29.88 in WNW 15.0 mph 27.0 mph 48 % 0.00 in 357 W/m2
15:50 54.5 °F 36.2 °F 29.88 in WNW 15.0 mph 26.0 mph 50 % 0.00 in 954 W/m2
15:55 55.2 °F 35.3 °F 29.88 in WNW 15.0 mph 25.0 mph 47 % 0.00 in 888 W/m2
16:00 54.5 °F 34.7 °F 29.89 in WNW 17.0 mph 29.0 mph 47 % 0.00 in 250 W/m2
16:05 52.9 °F 33.2 °F 29.88 in WNW 18.0 mph 29.0 mph 47 % 0.00 in 380 W/m2
16:10 52.9 °F 32.1 °F 29.88 in West 16.0 mph 28.0 mph 45 % 0.00 in 385 W/m2
16:15 53.1 °F 31.7 °F 29.88 in WNW 14.0 mph 23.0 mph 44 % 0.00 in 392 W/m2
16:20 53.2 °F 31.9 °F 29.88 in WNW 14.0 mph 26.0 mph 44 % 0.00 in 227 W/m2
16:25 53.6 °F 31.6 °F 29.88 in WNW 13.0 mph 26.0 mph 43 % 0.00 in 596 W/m2
16:30 53.4 °F 30.9 °F 29.88 in WNW 16.0 mph 30.0 mph 42 % 0.00 in 589 W/m2
16:35 53.2 °F 31.9 °F 29.88 in WNW 16.0 mph 30.0 mph 44 % 0.00 in 587 W/m2
16:40 53.1 °F 30.6 °F 29.88 in WNW 15.0 mph 28.0 mph 42 % 0.00 in 564 W/m2
16:45 52.5 °F 29.5 °F 29.88 in WNW 17.0 mph 30.0 mph 41 % 0.00 in 533 W/m2
16:50 52.5 °F 30.6 °F 29.87 in WNW 15.0 mph 30.0 mph 43 % 0.00 in 510 W/m2
16:56 52.9 °F 31.5 °F 29.87 in WNW 13.0 mph 26.0 mph 44 % 0.00 in 501 W/m2
17:01 52.5 °F 28.2 °F 29.87 in WNW 16.0 mph 32.0 mph 39 % 0.00 in 483 W/m2
17:06 52.2 °F 29.1 °F 29.87 in WNW 19.0 mph 32.0 mph 41 % 0.00 in 464 W/m2
17:11 52.2 °F 29.7 °F 29.87 in WNW 17.0 mph 30.0 mph 42 % 0.00 in 455 W/m2
17:16 52.2 °F 28.5 °F 29.87 in WNW 16.0 mph 29.0 mph 40 % 0.00 in 445 W/m2
17:21 51.6 °F 27.4 °F 29.87 in WNW 18.0 mph 29.0 mph 39 % 0.00 in 427 W/m2
17:26 51.4 °F 27.9 °F 29.87 in WNW 18.0 mph 29.0 mph 40 % 0.00 in 411 W/m2
17:31 51.4 °F 27.3 °F 29.87 in WNW 16.0 mph 27.0 mph 39 % 0.00 in 392 W/m2
17:36 51.4 °F 27.9 °F 29.87 in WNW 16.0 mph 27.0 mph 40 % 0.00 in 376 W/m2
17:41 51.3 °F 28.9 °F 29.87 in WNW 16.0 mph 33.0 mph 42 % 0.00 in 376 W/m2
17:46 50.9 °F 28.6 °F 29.87 in WNW 16.0 mph 33.0 mph 42 % 0.00 in 366 W/m2
17:51 50.4 °F 28.7 °F 29.87 in WNW 17.0 mph 31.0 mph 43 % 0.00 in 345 W/m2
17:56 50.0 °F 29.5 °F 29.87 in WNW 20.0 mph 34.0 mph 45 % 0.00 in 355 W/m2
18:01 49.8 °F 30.9 °F 29.87 in WNW 19.0 mph 34.0 mph 48 % 0.00 in 325 W/m2
18:06 49.6 °F 31.2 °F 29.87 in WNW 17.0 mph 28.0 mph 49 % 0.00 in 320 W/m2
18:11 49.6 °F 31.2 °F 29.86 in WNW 15.0 mph 27.0 mph 49 % 0.00 in 339 W/m2
18:16 49.6 °F 31.2 °F 29.86 in WNW 14.0 mph 24.0 mph 49 % 0.00 in 279 W/m2
18:21 49.6 °F 29.7 °F 29.86 in WNW 15.0 mph 32.0 mph 46 % 0.00 in 265 W/m2
18:26 49.1 °F 29.2 °F 29.86 in WNW 16.0 mph 32.0 mph 46 % 0.00 in 246 W/m2
18:31 48.9 °F 28.5 °F 29.87 in WNW 16.0 mph 30.0 mph 45 % 0.00 in 223 W/m2
18:36 48.7 °F 27.8 °F 29.86 in WNW 16.0 mph 28.0 mph 44 % 0.00 in 204 W/m2
18:41 48.7 °F 28.3 °F 29.87 in WNW 15.0 mph 28.0 mph 45 % 0.00 in 193 W/m2
18:46 48.4 °F 29.1 °F 29.86 in WNW 13.0 mph 28.0 mph 47 % 0.00 in 116 W/m2
18:51 47.8 °F 28.0 °F 29.87 in WNW 14.0 mph 33.0 mph 46 % 0.00 in 39 W/m2
18:56 46.9 °F 26.7 °F 29.87 in WNW 16.0 mph 33.0 mph 45 % 0.00 in 42 W/m2
19:01 46.4 °F 23.9 °F 29.87 in WNW 17.0 mph 32.0 mph 41 % 0.00 in 139 W/m2
19:06 46.2 °F 24.9 °F 29.87 in WNW 15.0 mph 29.0 mph 43 % 0.00 in 128 W/m2
19:11 46.2 °F 26.0 °F 29.87 in NW 16.0 mph 29.0 mph 45 % 0.00 in 111 W/m2
19:12 46.2 °F 26.0 °F 29.87 in NW 16.0 mph 29.0 mph 45 % 0.00 in 111 W/m2
19:17 46.0 °F 27.4 °F 29.87 in WNW 16.0 mph 29.0 mph 48 % 0.00 in 107 W/m2
19:22 45.9 °F 27.3 °F 29.86 in WNW 16.0 mph 29.0 mph 48 % 0.00 in 83 W/m2
19:27 45.7 °F 27.6 °F 29.86 in WNW 17.0 mph 29.0 mph 49 % 0.00 in 72 W/m2
19:32 45.3 °F 26.8 °F 29.86 in WNW 16.0 mph 26.0 mph 48 % 0.00 in 65 W/m2
19:37 45.0 °F 26.4 °F 29.86 in WNW 14.0 mph 25.0 mph 48 % 0.00 in 51 W/m2
19:42 44.8 °F 26.8 °F 29.86 in WNW 14.0 mph 25.0 mph 49 % 0.00 in 32 W/m2
19:47 44.4 °F 26.4 °F 29.86 in WNW 12.0 mph 25.0 mph 49 % 0.00 in 28 W/m2
19:52 44.2 °F 26.8 °F 29.87 in WNW 12.0 mph 23.0 mph 50 % 0.00 in 23 W/m2
19:57 44.1 °F 26.6 °F 29.86 in WNW 11.0 mph 23.0 mph 50 % 0.00 in 18 W/m2
20:02 43.7 °F 26.3 °F 29.86 in WNW 10.0 mph 20.0 mph 50 % 0.00 in 12 W/m2
20:07 43.3 °F 26.4 °F 29.87 in WNW 10.0 mph 21.0 mph 51 % 0.00 in 11 W/m2
20:12 43.2 °F 26.7 °F 29.87 in WNW 11.0 mph 22.0 mph 52 % 0.00 in 9 W/m2
20:17 43.0 °F 27.0 °F 29.87 in WNW 10.0 mph 22.0 mph 53 % 0.00 in 7 W/m2
20:22 42.6 °F 27.1 °F 29.87 in WNW 11.0 mph 22.0 mph 54 % 0.00 in 5 W/m2
20:27 42.4 °F 27.4 °F 29.87 in WNW 11.0 mph 22.0 mph 55 % 0.00 in 0 W/m2
20:32 42.3 °F 27.7 °F 29.87 in WNW 9.0 mph 18.0 mph 56 % 0.00 in 0 W/m2
20:37 42.1 °F 27.9 °F 29.87 in WNW 10.0 mph 19.0 mph 57 % 0.00 in 0 W/m2
20:42 41.9 °F 28.2 °F 29.88 in WNW 10.0 mph 22.0 mph 58 % 0.00 in 0 W/m2
20:47 41.7 °F 28.4 °F 29.88 in WNW 8.0 mph 22.0 mph 59 % 0.00 in 0 W/m2
20:52 41.5 °F 28.7 °F 29.88 in NW 7.0 mph 19.0 mph 60 % 0.00 in 0 W/m2
20:57 41.5 °F 29.1 °F 29.89 in NW 8.0 mph 19.0 mph 61 % 0.00 in 0 W/m2
21:02 41.4 °F 28.9 °F 29.89 in NNW 7.0 mph 18.0 mph 61 % 0.00 in 0 W/m2
21:08 41.2 °F 29.1 °F 29.89 in NNW 7.0 mph 18.0 mph 62 % 0.00 in 0 W/m2
21:13 41.0 °F 29.4 °F 29.89 in NW 8.0 mph 18.0 mph 63 % 0.00 in 0 W/m2
21:18 40.6 °F 29.4 °F 29.89 in NW 8.0 mph 16.0 mph 64 % 0.00 in 0 W/m2
21:23 40.5 °F 28.8 °F 29.90 in NW 8.0 mph 19.0 mph 63 % 0.00 in 0 W/m2
21:28 40.3 °F 29.1 °F 29.90 in NW 9.0 mph 19.0 mph 64 % 0.00 in 0 W/m2
21:33 40.3 °F 29.4 °F 29.90 in NW 9.0 mph 19.0 mph 65 % 0.00 in 0 W/m2
21:38 40.1 °F 29.6 °F 29.90 in NW 8.0 mph 16.0 mph 66 % 0.00 in 0 W/m2
21:43 39.9 °F 29.5 °F 29.90 in WNW 9.0 mph 19.0 mph 66 % 0.00 in 0 W/m2
21:48 39.9 °F 29.5 °F 29.90 in WNW 10.0 mph 19.0 mph 66 % 0.00 in 0 W/m2
21:53 39.7 °F 30.0 °F 29.91 in WNW 10.0 mph 21.0 mph 68 % 0.00 in 0 W/m2
21:58 39.6 °F 30.6 °F 29.90 in WNW 10.0 mph 21.0 mph 70 % 0.00 in 0 W/m2
22:03 39.2 °F 30.6 °F 29.90 in WNW 9.0 mph 20.0 mph 71 % 0.00 in 0 W/m2
22:08 39.0 °F 30.4 °F 29.90 in WNW 9.0 mph 18.0 mph 71 % 0.00 in 0 W/m2
22:13 38.7 °F 30.4 °F 29.90 in WNW 9.0 mph 18.0 mph 72 % 0.00 in 0 W/m2
22:18 38.5 °F 30.9 °F 29.90 in WNW 9.0 mph 16.0 mph 74 % 0.00 in 0 W/m2
22:23 38.1 °F 31.2 °F 29.90 in WNW 9.0 mph 16.0 mph 76 % 0.00 in 0 W/m2
22:28 37.8 °F 31.2 °F 29.90 in WNW 8.0 mph 15.0 mph 77 % 0.00 in 0 W/m2
22:33 37.6 °F 31.3 °F 29.90 in WNW 6.0 mph 12.0 mph 78 % 0.00 in 0 W/m2
22:38 37.4 °F 31.2 °F 29.90 in WNW 5.0 mph 13.0 mph 78 % 0.00 in 0 W/m2
22:43 37.2 °F 31.0 °F 29.90 in WNW 5.0 mph 13.0 mph 78 % 0.00 in 0 W/m2
22:48 37.0 °F 31.1 °F 29.90 in WNW 6.0 mph 11.0 mph 79 % 0.00 in 0 W/m2
22:53 36.9 °F 31.0 °F 29.90 in WNW 6.0 mph 10.0 mph 79 % 0.00 in 0 W/m2
22:58 36.7 °F 30.8 °F 29.90 in WNW 5.0 mph 10.0 mph 79 % 0.00 in 0 W/m2
23:03 36.7 °F 30.8 °F 29.90 in WNW 2.0 mph 8.0 mph 79 % 0.00 in 0 W/m2
23:08 36.5 °F 30.6 °F 29.90 in WNW 1.0 mph 6.0 mph 79 % 0.00 in 0 W/m2
23:13 36.3 °F 30.4 °F 29.90 in Calm   2.0 mph 79 % 0.00 in 0 W/m2
23:18 36.1 °F 30.3 °F 29.90 in Calm   2.0 mph 79 % 0.00 in 0 W/m2
23:23 35.8 °F 29.9 °F 29.89 in WNW 2.0 mph 9.0 mph 79 % 0.00 in 0 W/m2
23:28 35.8 °F 29.9 °F 29.90 in NW 4.0 mph 9.0 mph 79 % 0.00 in 0 W/m2
23:33 35.8 °F 29.9 °F 29.90 in NW 4.0 mph 9.0 mph 79 % 0.00 in 0 W/m2
23:38 35.8 °F 29.6 °F 29.90 in WNW 5.0 mph 11.0 mph 78 % 0.00 in 0 W/m2
23:43 35.8 °F 29.6 °F 29.90 in WNW 4.0 mph 11.0 mph 78 % 0.00 in 0 W/m2
23:44 35.8 °F 29.6 °F 29.90 in WNW 4.0 mph 11.0 mph 78 % 0.00 in 0 W/m2
23:49 35.8 °F 29.3 °F 29.90 in WNW 3.0 mph 8.0 mph 77 % 0.00 in 0 W/m2
23:54 35.8 °F 29.3 °F 29.90 in WNW 4.0 mph 11.0 mph 77 % 0.00 in 0 W/m2
23:59 35.8 °F 29.3 °F 29.90 in WNW 6.0 mph 13.0 mph 77 % 0.00 in 0 W/m2
Delerius-Weather
Compliments of Weather Underground - 2.25 mb

Data updates at regular intervals.